Weather at Siyalima Airport

Public forecast

Using degrees Celsius for public forecast. Weather courtesy of forecast.io.

Closest aviation weather report (METAR) to Siyalima Airport

Closest report is Robert Gabriel Mugabe International Airport, 82.0 nm (151.9 km) SSE. Retrieved 2020/11/29 14:00 UTC (2 hours ago):

FVRG 291400Z 04011KT 9999 TS FEW045CB SCT050 BKN300 27/15 Q1017 NOSIG

Closest aviation forecast (TAF) to Siyalima Airport

Forecast is more than 12 hours old.

Closest forecast is Robert Gabriel Mugabe International Airport, 82.0 nm (151.9 km) SSE. Retrieved 2020/11/11 12:00 UTC (18 days ago):

TAF FVRG 111000Z 1112/1218 14010KT 9999 BKN060TCU PROB30 TEMPO 1112/1118 8000 -TSRA FEW060CB BKN080 BECMG 1120/1122 9999 -RA TEMPO 1204/1207 12011KT 9999 -RA BKN010 BKN080 BECMG 1208/1210 FEW040CB BKN045 PROB30 TEMPO 1212/1218 8000 -TSRA FEW045CB BKN080